KTUS/TUS METAR and TAF weather

Enter ICAO airport designator
Station Type Date Time Source
KTUS METAR 2022/07/01 01:41 UTC NOAA

KTUS 010141Z 19012KT 10SM VCTS FEW110 32/17 A2996 RMK AO2 WSHFT 0051 LTG DSNT NE T03220167


Station Type Date Time Source
KTUS Decoded METAR 2022/07/01 01:41 UTC NOAA

TUCSON INTERNATIONAL AIRPORT , AZ, United States (KTUS) 32-08N 110-57W 786M
Jun 30, 2022 - 09:41 PM EDT / 2022.07.01 0141 UTC
Wind: from the S (190 degrees) at 14 MPH (12 KT):0
Visibility: 10 mile(s):0
Sky conditions: mostly clear
Weather: thunder in the vicinity; Lightning observed
Temperature: 90.0 F (32.2 C)
Dew Point: 62.1 F (16.7 C)
Relative Humidity: 39%
Pressure (altimeter): 29.96 in. Hg (1014 hPa)
ob: KTUS 010141Z 19012KT 10SM VCTS FEW110 32/17 A2996 RMK AO2 WSHFT 0051 LTG DSNT NE T03220167
cycle: 1

Station Type Date Time Source
KTUS TAF 2022/07/01 01:30 UTC NOAA

TAF
AMD KTUS 010128Z 0101/0124 32008KT P6SM VCSH BKN100
TEMPO 0101/0103 VRB15G30KT 6SM -TSRA BKN090CB
FM010300 14008KT P6SM SCT100 BKN150
FM010700 15007KT P6SM SCT120

Example: see airport list